sensor_id;sensor_type;location;lat;lon;timestamp;temperature;humidity
4739;DHT22;2383;48.632;10.156;2022-09-11T00:03:45;19.30;99.90
4739;DHT22;2383;48.632;10.156;2022-09-11T00:07:46;19.40;99.90
4739;DHT22;2383;48.632;10.156;2022-09-11T00:11:48;19.40;99.90
4739;DHT22;2383;48.632;10.156;2022-09-11T00:15:50;19.30;99.90
4739;DHT22;2383;48.632;10.156;2022-09-11T00:19:52;19.00;99.90
4739;DHT22;2383;48.632;10.156;2022-09-11T00:23:55;19.40;99.90
4739;DHT22;2383;48.632;10.156;2022-09-11T00:27:56;18.90;99.90
4739;DHT22;2383;48.632;10.156;2022-09-11T00:31:58;19.20;99.90
4739;DHT22;2383;48.632;10.156;2022-09-11T00:36:03;19.40;99.90
4739;DHT22;2383;48.632;10.156;2022-09-11T00:40:07;19.50;99.90
4739;DHT22;2383;48.632;10.156;2022-09-11T00:48:21;19.70;99.90
4739;DHT22;2383;48.632;10.156;2022-09-11T00:52:29;19.80;99.90
4739;DHT22;2383;48.632;10.156;2022-09-11T00:56:36;19.90;99.90
4739;DHT22;2383;48.632;10.156;2022-09-11T01:00:38;20.20;99.90
4739;DHT22;2383;48.632;10.156;2022-09-11T01:04:44;19.90;99.90
4739;DHT22;2383;48.632;10.156;2022-09-11T01:08:46;19.30;99.90
4739;DHT22;2383;48.632;10.156;2022-09-11T01:17:20;19.50;99.90
4739;DHT22;2383;48.632;10.156;2022-09-11T01:26:26;19.90;99.90
4739;DHT22;2383;48.632;10.156;2022-09-11T01:30:39;19.50;99.90
4739;DHT22;2383;48.632;10.156;2022-09-11T01:35:07;19.00;99.90
4739;DHT22;2383;48.632;10.156;2022-09-11T01:39:18;19.50;99.90
4739;DHT22;2383;48.632;10.156;2022-09-11T01:43:28;19.70;99.90
4739;DHT22;2383;48.632;10.156;2022-09-11T01:47:33;19.50;99.90
4739;DHT22;2383;48.632;10.156;2022-09-11T01:51:37;18.60;99.90
4739;DHT22;2383;48.632;10.156;2022-09-11T01:55:57;19.00;99.90
4739;DHT22;2383;48.632;10.156;2022-09-11T02:00:06;18.60;99.90
4739;DHT22;2383;48.632;10.156;2022-09-11T02:04:23;18.90;99.90
4739;DHT22;2383;48.632;10.156;2022-09-11T02:12:55;18.60;99.90
4739;DHT22;2383;48.632;10.156;2022-09-11T02:17:06;19.50;99.90
4739;DHT22;2383;48.632;10.156;2022-09-11T02:21:09;19.30;99.90
4739;DHT22;2383;48.632;10.156;2022-09-11T02:25:11;19.60;99.90
4739;DHT22;2383;48.632;10.156;2022-09-11T02:29:14;19.40;99.90
4739;DHT22;2383;48.632;10.156;2022-09-11T02:33:30;19.50;99.90
4739;DHT22;2383;48.632;10.156;2022-09-11T02:50:35;19.30;99.90
4739;DHT22;2383;48.632;10.156;2022-09-11T02:59:29;20.10;99.90
4739;DHT22;2383;48.632;10.156;2022-09-11T03:03:21;19.70;99.90
4739;DHT22;2383;48.632;10.156;2022-09-11T03:07:24;19.40;99.90
4739;DHT22;2383;48.632;10.156;2022-09-11T03:11:25;19.20;99.90
4739;DHT22;2383;48.632;10.156;2022-09-11T03:15:28;19.80;99.90
4739;DHT22;2383;48.632;10.156;2022-09-11T03:19:31;20.00;99.90
4739;DHT22;2383;48.632;10.156;2022-09-11T03:23:33;19.70;99.90
4739;DHT22;2383;48.632;10.156;2022-09-11T03:27:35;19.50;99.90
4739;DHT22;2383;48.632;10.156;2022-09-11T03:31:39;19.90;99.90
4739;DHT22;2383;48.632;10.156;2022-09-11T03:35:45;19.60;99.90
4739;DHT22;2383;48.632;10.156;2022-09-11T03:39:47;18.80;99.90
4739;DHT22;2383;48.632;10.156;2022-09-11T03:43:49;18.90;99.90
4739;DHT22;2383;48.632;10.156;2022-09-11T03:47:52;19.00;99.90
4739;DHT22;2383;48.632;10.156;2022-09-11T03:51:54;19.10;99.90
4739;DHT22;2383;48.632;10.156;2022-09-11T03:55:58;18.90;99.90
4739;DHT22;2383;48.632;10.156;2022-09-11T04:00:01;19.50;99.90
4739;DHT22;2383;48.632;10.156;2022-09-11T04:04:04;19.70;99.90
4739;DHT22;2383;48.632;10.156;2022-09-11T04:08:06;19.40;99.90
4739;DHT22;2383;48.632;10.156;2022-09-11T04:12:08;18.70;99.90
4739;DHT22;2383;48.632;10.156;2022-09-11T04:16:13;18.10;99.90
4739;DHT22;2383;48.632;10.156;2022-09-11T04:20:15;18.40;99.90
4739;DHT22;2383;48.632;10.156;2022-09-11T04:24:17;18.40;99.90
4739;DHT22;2383;48.632;10.156;2022-09-11T04:28:19;18.40;99.90
4739;DHT22;2383;48.632;10.156;2022-09-11T04:32:21;17.90;99.90
4739;DHT22;2383;48.632;10.156;2022-09-11T04:36:22;18.30;99.90
4739;DHT22;2383;48.632;10.156;2022-09-11T04:40:27;18.20;99.90
4739;DHT22;2383;48.632;10.156;2022-09-11T04:44:29;18.70;99.90
4739;DHT22;2383;48.632;10.156;2022-09-11T04:48:30;18.80;99.90
4739;DHT22;2383;48.632;10.156;2022-09-11T04:52:32;18.50;99.90
4739;DHT22;2383;48.632;10.156;2022-09-11T04:56:35;17.90;99.90
4739;DHT22;2383;48.632;10.156;2022-09-11T05:00:40;18.10;99.90
4739;DHT22;2383;48.632;10.156;2022-09-11T05:04:41;18.00;99.90
4739;DHT22;2383;48.632;10.156;2022-09-11T05:08:45;17.80;99.90
4739;DHT22;2383;48.632;10.156;2022-09-11T05:12:47;18.40;99.90
4739;DHT22;2383;48.632;10.156;2022-09-11T05:16:48;18.80;99.90
4739;DHT22;2383;48.632;10.156;2022-09-11T05:21:15;18.00;99.90
4739;DHT22;2383;48.632;10.156;2022-09-11T05:25:17;17.90;99.90
4739;DHT22;2383;48.632;10.156;2022-09-11T05:29:19;18.30;99.90
4739;DHT22;2383;48.632;10.156;2022-09-11T05:33:21;17.60;99.90
4739;DHT22;2383;48.632;10.156;2022-09-11T05:37:26;17.50;99.90
4739;DHT22;2383;48.632;10.156;2022-09-11T05:41:28;17.60;99.90
4739;DHT22;2383;48.632;10.156;2022-09-11T05:45:30;17.90;99.90
4739;DHT22;2383;48.632;10.156;2022-09-11T05:49:32;17.60;99.90
4739;DHT22;2383;48.632;10.156;2022-09-11T05:53:35;18.00;99.90
4739;DHT22;2383;48.632;10.156;2022-09-11T05:57:36;18.10;99.90
4739;DHT22;2383;48.632;10.156;2022-09-11T06:01:38;18.20;99.90
4739;DHT22;2383;48.632;10.156;2022-09-11T06:05:40;18.20;99.90
4739;DHT22;2383;48.632;10.156;2022-09-11T06:09:42;17.80;99.90
4739;DHT22;2383;48.632;10.156;2022-09-11T06:13:45;17.60;99.90
4739;DHT22;2383;48.632;10.156;2022-09-11T06:17:47;17.30;99.90
4739;DHT22;2383;48.632;10.156;2022-09-11T06:21:48;17.50;99.90
4739;DHT22;2383;48.632;10.156;2022-09-11T06:25:50;18.00;99.90
4739;DHT22;2383;48.632;10.156;2022-09-11T06:29:54;17.90;99.90
4739;DHT22;2383;48.632;10.156;2022-09-11T06:33:56;17.80;99.90
4739;DHT22;2383;48.632;10.156;2022-09-11T06:37:58;18.60;99.90
4739;DHT22;2383;48.632;10.156;2022-09-11T06:41:59;18.50;99.90
4739;DHT22;2383;48.632;10.156;2022-09-11T06:46:05;18.20;99.90
4739;DHT22;2383;48.632;10.156;2022-09-11T06:50:07;18.40;99.90
4739;DHT22;2383;48.632;10.156;2022-09-11T06:54:09;18.60;99.90
4739;DHT22;2383;48.632;10.156;2022-09-11T06:58:11;18.80;99.90
4739;DHT22;2383;48.632;10.156;2022-09-11T07:02:13;19.10;99.90
4739;DHT22;2383;48.632;10.156;2022-09-11T07:06:17;19.50;99.90
4739;DHT22;2383;48.632;10.156;2022-09-11T07:10:19;19.60;99.90
4739;DHT22;2383;48.632;10.156;2022-09-11T07:14:21;19.30;99.90
4739;DHT22;2383;48.632;10.156;2022-09-11T07:18:24;18.70;99.90
4739;DHT22;2383;48.632;10.156;2022-09-11T07:22:25;18.90;99.90
4739;DHT22;2383;48.632;10.156;2022-09-11T07:26:28;18.60;99.90
4739;DHT22;2383;48.632;10.156;2022-09-11T07:30:30;18.30;99.90
4739;DHT22;2383;48.632;10.156;2022-09-11T07:34:33;18.80;99.90
4739;DHT22;2383;48.632;10.156;2022-09-11T07:38:34;18.70;99.90
4739;DHT22;2383;48.632;10.156;2022-09-11T07:42:36;19.10;99.90
4739;DHT22;2383;48.632;10.156;2022-09-11T07:46:38;18.80;99.90
4739;DHT22;2383;48.632;10.156;2022-09-11T07:50:41;18.60;99.90
4739;DHT22;2383;48.632;10.156;2022-09-11T07:54:43;18.70;99.90
4739;DHT22;2383;48.632;10.156;2022-09-11T07:58:45;18.60;99.90
4739;DHT22;2383;48.632;10.156;2022-09-11T08:02:47;17.90;99.90
4739;DHT22;2383;48.632;10.156;2022-09-11T08:06:49;18.00;99.90
4739;DHT22;2383;48.632;10.156;2022-09-11T08:10:51;19.00;99.90
4739;DHT22;2383;48.632;10.156;2022-09-11T08:14:52;19.20;99.90
4739;DHT22;2383;48.632;10.156;2022-09-11T08:18:55;19.60;99.90
4739;DHT22;2383;48.632;10.156;2022-09-11T08:22:57;18.80;99.90
4739;DHT22;2383;48.632;10.156;2022-09-11T08:26:59;18.80;99.90
4739;DHT22;2383;48.632;10.156;2022-09-11T08:31:01;18.70;99.90
4739;DHT22;2383;48.632;10.156;2022-09-11T08:35:03;19.30;99.90
4739;DHT22;2383;48.632;10.156;2022-09-11T08:39:04;19.50;99.90
4739;DHT22;2383;48.632;10.156;2022-09-11T08:47:24;18.70;99.90
4739;DHT22;2383;48.632;10.156;2022-09-11T08:51:27;19.10;99.90
4739;DHT22;2383;48.632;10.156;2022-09-11T08:55:33;19.60;99.90
4739;DHT22;2383;48.632;10.156;2022-09-11T09:13:01;19.60;99.90
4739;DHT22;2383;48.632;10.156;2022-09-11T09:17:14;19.60;99.90
4739;DHT22;2383;48.632;10.156;2022-09-11T09:21:34;19.10;99.90
4739;DHT22;2383;48.632;10.156;2022-09-11T09:25:40;19.20;99.90
4739;DHT22;2383;48.632;10.156;2022-09-11T09:29:44;19.70;99.90
4739;DHT22;2383;48.632;10.156;2022-09-11T09:33:51;19.50;99.90
4739;DHT22;2383;48.632;10.156;2022-09-11T09:37:55;20.30;99.90
4739;DHT22;2383;48.632;10.156;2022-09-11T09:46:20;20.00;99.90
4739;DHT22;2383;48.632;10.156;2022-09-11T09:50:29;20.80;99.90
4739;DHT22;2383;48.632;10.156;2022-09-11T09:54:33;19.80;99.90
4739;DHT22;2383;48.632;10.156;2022-09-11T09:58:40;19.30;99.90
4739;DHT22;2383;48.632;10.156;2022-09-11T10:02:51;19.40;99.90
4739;DHT22;2383;48.632;10.156;2022-09-11T10:07:08;19.50;99.90
4739;DHT22;2383;48.632;10.156;2022-09-11T10:11:11;20.00;99.90
4739;DHT22;2383;48.632;10.156;2022-09-11T10:15:21;20.50;99.90
4739;DHT22;2383;48.632;10.156;2022-09-11T10:19:40;20.00;99.90
4739;DHT22;2383;48.632;10.156;2022-09-11T10:28:04;20.70;99.90
4739;DHT22;2383;48.632;10.156;2022-09-11T10:32:15;20.00;99.90
4739;DHT22;2383;48.632;10.156;2022-09-11T10:36:23;19.20;99.90
4739;DHT22;2383;48.632;10.156;2022-09-11T10:40:26;20.10;99.90
4739;DHT22;2383;48.632;10.156;2022-09-11T10:44:28;20.60;99.90
4739;DHT22;2383;48.632;10.156;2022-09-11T10:48:31;19.60;99.90
4739;DHT22;2383;48.632;10.156;2022-09-11T11:01:22;21.00;99.90
4739;DHT22;2383;48.632;10.156;2022-09-11T11:23:55;21.20;99.90
4739;DHT22;2383;48.632;10.156;2022-09-11T11:40:50;21.10;99.90
4739;DHT22;2383;48.632;10.156;2022-09-11T11:45:22;21.50;99.90
4739;DHT22;2383;48.632;10.156;2022-09-11T12:03:00;22.10;99.90
4739;DHT22;2383;48.632;10.156;2022-09-11T12:07:04;21.60;99.90
4739;DHT22;2383;48.632;10.156;2022-09-11T12:11:06;22.60;99.90
4739;DHT22;2383;48.632;10.156;2022-09-11T12:15:19;22.50;99.90
4739;DHT22;2383;48.632;10.156;2022-09-11T12:19:23;20.90;99.90
4739;DHT22;2383;48.632;10.156;2022-09-11T12:28:23;21.30;99.90
4739;DHT22;2383;48.632;10.156;2022-09-11T12:32:26;21.60;99.90
4739;DHT22;2383;48.632;10.156;2022-09-11T12:36:50;21.50;99.70
4739;DHT22;2383;48.632;10.156;2022-09-11T12:40:59;21.80;99.10
4739;DHT22;2383;48.632;10.156;2022-09-11T12:45:31;22.00;99.10
4739;DHT22;2383;48.632;10.156;2022-09-11T12:49:33;22.10;99.60
4739;DHT22;2383;48.632;10.156;2022-09-11T12:53:37;21.50;99.90
4739;DHT22;2383;48.632;10.156;2022-09-11T12:57:48;21.70;99.90
4739;DHT22;2383;48.632;10.156;2022-09-11T13:01:52;22.20;99.90
4739;DHT22;2383;48.632;10.156;2022-09-11T13:06:09;22.50;99.90
4739;DHT22;2383;48.632;10.156;2022-09-11T13:10:33;22.20;98.80
4739;DHT22;2383;48.632;10.156;2022-09-11T13:18:42;21.90;98.50
4739;DHT22;2383;48.632;10.156;2022-09-11T13:22:50;22.60;98.20
4739;DHT22;2383;48.632;10.156;2022-09-11T13:27:23;22.50;97.20
4739;DHT22;2383;48.632;10.156;2022-09-11T13:31:37;23.00;97.90
4739;DHT22;2383;48.632;10.156;2022-09-11T13:35:43;23.00;97.20
4739;DHT22;2383;48.632;10.156;2022-09-11T13:39:45;22.80;98.00
4739;DHT22;2383;48.632;10.156;2022-09-11T13:43:54;21.80;98.50
4739;DHT22;2383;48.632;10.156;2022-09-11T13:47:59;22.20;98.00
4739;DHT22;2383;48.632;10.156;2022-09-11T13:52:06;22.40;98.50
4739;DHT22;2383;48.632;10.156;2022-09-11T14:01:11;23.70;98.10
4739;DHT22;2383;48.632;10.156;2022-09-11T14:05:25;23.00;98.30
4739;DHT22;2383;48.632;10.156;2022-09-11T14:09:27;23.40;97.80
4739;DHT22;2383;48.632;10.156;2022-09-11T14:13:48;23.70;97.60
4739;DHT22;2383;48.632;10.156;2022-09-11T14:17:51;24.20;97.60
4739;DHT22;2383;48.632;10.156;2022-09-11T14:21:53;23.30;96.90
4739;DHT22;2383;48.632;10.156;2022-09-11T14:26:14;22.70;97.60
4739;DHT22;2383;48.632;10.156;2022-09-11T14:30:33;22.60;97.20
4739;DHT22;2383;48.632;10.156;2022-09-11T14:34:38;22.20;96.60
4739;DHT22;2383;48.632;10.156;2022-09-11T14:38:40;22.70;98.00
4739;DHT22;2383;48.632;10.156;2022-09-11T14:42:42;23.00;97.50
4739;DHT22;2383;48.632;10.156;2022-09-11T14:46:44;22.80;97.10
4739;DHT22;2383;48.632;10.156;2022-09-11T14:50:45;23.10;96.40
4739;DHT22;2383;48.632;10.156;2022-09-11T14:54:48;22.70;95.60
4739;DHT22;2383;48.632;10.156;2022-09-11T14:58:49;22.60;96.30
4739;DHT22;2383;48.632;10.156;2022-09-11T15:02:51;22.90;96.40
4739;DHT22;2383;48.632;10.156;2022-09-11T15:06:53;23.00;96.50
4739;DHT22;2383;48.632;10.156;2022-09-11T15:11:00;23.10;96.50
4739;DHT22;2383;48.632;10.156;2022-09-11T15:15:02;22.90;97.00
4739;DHT22;2383;48.632;10.156;2022-09-11T15:19:05;22.90;96.80
4739;DHT22;2383;48.632;10.156;2022-09-11T15:23:06;23.10;96.20
4739;DHT22;2383;48.632;10.156;2022-09-11T15:27:08;22.50;97.00
4739;DHT22;2383;48.632;10.156;2022-09-11T15:31:11;22.50;97.50
4739;DHT22;2383;48.632;10.156;2022-09-11T15:35:13;23.10;97.20
4739;DHT22;2383;48.632;10.156;2022-09-11T15:39:19;23.80;97.00
4739;DHT22;2383;48.632;10.156;2022-09-11T15:43:32;23.40;97.30
4739;DHT22;2383;48.632;10.156;2022-09-11T15:47:35;23.30;96.80
4739;DHT22;2383;48.632;10.156;2022-09-11T15:51:36;23.30;97.00
4739;DHT22;2383;48.632;10.156;2022-09-11T15:55:39;23.10;97.00
4739;DHT22;2383;48.632;10.156;2022-09-11T15:59:41;23.70;96.70
4739;DHT22;2383;48.632;10.156;2022-09-11T16:03:43;23.50;96.60
4739;DHT22;2383;48.632;10.156;2022-09-11T16:07:45;23.40;96.60
4739;DHT22;2383;48.632;10.156;2022-09-11T16:11:49;23.60;96.80
4739;DHT22;2383;48.632;10.156;2022-09-11T16:16:03;23.20;97.50
4739;DHT22;2383;48.632;10.156;2022-09-11T16:20:07;23.80;97.20
4739;DHT22;2383;48.632;10.156;2022-09-11T16:24:09;23.90;96.60
4739;DHT22;2383;48.632;10.156;2022-09-11T16:28:12;23.90;96.50
4739;DHT22;2383;48.632;10.156;2022-09-11T16:32:13;24.00;96.80
4739;DHT22;2383;48.632;10.156;2022-09-11T16:36:29;23.70;97.30
4739;DHT22;2383;48.632;10.156;2022-09-11T16:40:35;23.80;97.50
4739;DHT22;2383;48.632;10.156;2022-09-11T16:44:37;23.60;97.70
4739;DHT22;2383;48.632;10.156;2022-09-11T16:48:39;23.30;98.10
4739;DHT22;2383;48.632;10.156;2022-09-11T16:52:41;23.40;98.40
4739;DHT22;2383;48.632;10.156;2022-09-11T16:56:43;23.50;99.30
4739;DHT22;2383;48.632;10.156;2022-09-11T17:00:46;23.40;98.90
4739;DHT22;2383;48.632;10.156;2022-09-11T17:04:48;23.50;98.90
4739;DHT22;2383;48.632;10.156;2022-09-11T17:08:50;23.30;98.90
4739;DHT22;2383;48.632;10.156;2022-09-11T17:12:55;23.30;99.50
4739;DHT22;2383;48.632;10.156;2022-09-11T17:16:57;23.20;99.90
4739;DHT22;2383;48.632;10.156;2022-09-11T17:21:03;22.90;99.90
4739;DHT22;2383;48.632;10.156;2022-09-11T17:25:06;22.80;99.90
4739;DHT22;2383;48.632;10.156;2022-09-11T17:29:08;22.80;99.70
4739;DHT22;2383;48.632;10.156;2022-09-11T17:33:10;22.60;99.90
4739;DHT22;2383;48.632;10.156;2022-09-11T17:37:13;22.00;99.90
4739;DHT22;2383;48.632;10.156;2022-09-11T17:41:15;21.30;99.90
4739;DHT22;2383;48.632;10.156;2022-09-11T17:45:17;21.40;99.90
4739;DHT22;2383;48.632;10.156;2022-09-11T17:49:18;21.10;99.90
4739;DHT22;2383;48.632;10.156;2022-09-11T17:53:21;21.00;99.90
4739;DHT22;2383;48.632;10.156;2022-09-11T17:57:23;21.60;99.90
4739;DHT22;2383;48.632;10.156;2022-09-11T18:01:27;21.60;99.90
4739;DHT22;2383;48.632;10.156;2022-09-11T18:05:29;21.80;99.90
4739;DHT22;2383;48.632;10.156;2022-09-11T18:09:31;21.90;99.90
4739;DHT22;2383;48.632;10.156;2022-09-11T18:13:33;21.80;99.90
4739;DHT22;2383;48.632;10.156;2022-09-11T18:17:35;21.50;99.90
4739;DHT22;2383;48.632;10.156;2022-09-11T18:21:38;21.40;99.90
4739;DHT22;2383;48.632;10.156;2022-09-11T18:25:41;21.30;99.90
4739;DHT22;2383;48.632;10.156;2022-09-11T18:29:43;21.30;99.90
4739;DHT22;2383;48.632;10.156;2022-09-11T18:33:51;21.40;99.90
4739;DHT22;2383;48.632;10.156;2022-09-11T18:37:54;21.40;99.90
4739;DHT22;2383;48.632;10.156;2022-09-11T18:41:56;20.90;99.90
4739;DHT22;2383;48.632;10.156;2022-09-11T18:46:01;20.10;99.90
4739;DHT22;2383;48.632;10.156;2022-09-11T18:50:04;20.40;99.90
4739;DHT22;2383;48.632;10.156;2022-09-11T18:54:11;20.60;99.90
4739;DHT22;2383;48.632;10.156;2022-09-11T18:58:15;19.80;99.90
4739;DHT22;2383;48.632;10.156;2022-09-11T19:02:17;19.80;99.90
4739;DHT22;2383;48.632;10.156;2022-09-11T19:06:22;20.30;99.90
4739;DHT22;2383;48.632;10.156;2022-09-11T19:10:25;20.70;99.90
4739;DHT22;2383;48.632;10.156;2022-09-11T19:14:26;20.30;99.90
4739;DHT22;2383;48.632;10.156;2022-09-11T19:18:29;20.10;99.90
4739;DHT22;2383;48.632;10.156;2022-09-11T19:22:30;20.30;99.90
4739;DHT22;2383;48.632;10.156;2022-09-11T19:26:35;20.60;99.90
4739;DHT22;2383;48.632;10.156;2022-09-11T19:30:38;20.50;99.90
4739;DHT22;2383;48.632;10.156;2022-09-11T19:34:43;20.20;99.90
4739;DHT22;2383;48.632;10.156;2022-09-11T19:38:49;19.30;99.90
4739;DHT22;2383;48.632;10.156;2022-09-11T19:42:52;19.50;99.90
4739;DHT22;2383;48.632;10.156;2022-09-11T19:46:53;19.80;99.90
4739;DHT22;2383;48.632;10.156;2022-09-11T19:50:57;18.60;99.90
4739;DHT22;2383;48.632;10.156;2022-09-11T19:55:00;18.80;99.90
4739;DHT22;2383;48.632;10.156;2022-09-11T19:59:05;18.10;99.90
4739;DHT22;2383;48.632;10.156;2022-09-11T20:03:07;18.60;99.90
4739;DHT22;2383;48.632;10.156;2022-09-11T20:07:09;18.90;99.90
4739;DHT22;2383;48.632;10.156;2022-09-11T20:11:16;18.80;99.90
4739;DHT22;2383;48.632;10.156;2022-09-11T20:15:19;19.00;99.90
4739;DHT22;2383;48.632;10.156;2022-09-11T20:19:21;18.90;99.90
4739;DHT22;2383;48.632;10.156;2022-09-11T20:23:23;18.90;99.90
4739;DHT22;2383;48.632;10.156;2022-09-11T20:27:25;18.70;99.90
4739;DHT22;2383;48.632;10.156;2022-09-11T20:31:32;18.80;99.90
4739;DHT22;2383;48.632;10.156;2022-09-11T20:35:45;18.80;99.90
4739;DHT22;2383;48.632;10.156;2022-09-11T20:39:47;18.90;99.90
4739;DHT22;2383;48.632;10.156;2022-09-11T20:43:50;18.90;99.90
4739;DHT22;2383;48.632;10.156;2022-09-11T20:47:52;19.50;99.90
4739;DHT22;2383;48.632;10.156;2022-09-11T20:51:54;19.10;99.90
4739;DHT22;2383;48.632;10.156;2022-09-11T20:56:09;19.10;99.90
4739;DHT22;2383;48.632;10.156;2022-09-11T21:00:12;18.90;99.90
4739;DHT22;2383;48.632;10.156;2022-09-11T21:04:14;19.10;99.90
4739;DHT22;2383;48.632;10.156;2022-09-11T21:08:16;18.80;99.90
4739;DHT22;2383;48.632;10.156;2022-09-11T21:12:18;19.10;99.90
4739;DHT22;2383;48.632;10.156;2022-09-11T21:16:20;18.70;99.90
4739;DHT22;2383;48.632;10.156;2022-09-11T21:20:23;18.30;99.90
4739;DHT22;2383;48.632;10.156;2022-09-11T21:24:24;18.60;99.90
4739;DHT22;2383;48.632;10.156;2022-09-11T21:28:27;18.60;99.90
4739;DHT22;2383;48.632;10.156;2022-09-11T21:32:28;18.60;99.90
4739;DHT22;2383;48.632;10.156;2022-09-11T21:36:30;18.90;99.90
4739;DHT22;2383;48.632;10.156;2022-09-11T21:40:33;18.80;99.90
4739;DHT22;2383;48.632;10.156;2022-09-11T21:44:35;18.70;99.90
4739;DHT22;2383;48.632;10.156;2022-09-11T21:48:39;18.70;99.90
4739;DHT22;2383;48.632;10.156;2022-09-11T21:52:41;18.60;99.90
4739;DHT22;2383;48.632;10.156;2022-09-11T21:56:43;17.40;99.90
4739;DHT22;2383;48.632;10.156;2022-09-11T22:00:45;17.80;99.90
4739;DHT22;2383;48.632;10.156;2022-09-11T22:04:53;17.90;99.90
4739;DHT22;2383;48.632;10.156;2022-09-11T22:08:55;17.60;99.90
4739;DHT22;2383;48.632;10.156;2022-09-11T22:12:57;17.50;99.90
4739;DHT22;2383;48.632;10.156;2022-09-11T22:16:59;18.00;99.90
4739;DHT22;2383;48.632;10.156;2022-09-11T22:21:01;18.40;99.90
4739;DHT22;2383;48.632;10.156;2022-09-11T22:25:05;18.70;99.90
4739;DHT22;2383;48.632;10.156;2022-09-11T22:29:07;18.10;99.90
4739;DHT22;2383;48.632;10.156;2022-09-11T22:33:09;17.50;99.90
4739;DHT22;2383;48.632;10.156;2022-09-11T22:37:11;17.90;99.90
4739;DHT22;2383;48.632;10.156;2022-09-11T22:41:13;17.60;99.90
4739;DHT22;2383;48.632;10.156;2022-09-11T22:45:14;17.50;99.90
4739;DHT22;2383;48.632;10.156;2022-09-11T22:49:16;17.60;99.90
4739;DHT22;2383;48.632;10.156;2022-09-11T22:53:18;17.50;99.90
4739;DHT22;2383;48.632;10.156;2022-09-11T22:57:21;17.70;99.90
4739;DHT22;2383;48.632;10.156;2022-09-11T23:01:29;17.20;99.90
4739;DHT22;2383;48.632;10.156;2022-09-11T23:05:31;17.40;99.90
4739;DHT22;2383;48.632;10.156;2022-09-11T23:09:51;17.90;99.90
4739;DHT22;2383;48.632;10.156;2022-09-11T23:13:53;17.70;99.90
4739;DHT22;2383;48.632;10.156;2022-09-11T23:17:55;17.90;99.90
4739;DHT22;2383;48.632;10.156;2022-09-11T23:21:56;17.10;99.90
4739;DHT22;2383;48.632;10.156;2022-09-11T23:25:58;16.70;99.90
4739;DHT22;2383;48.632;10.156;2022-09-11T23:30:00;17.50;99.90
4739;DHT22;2383;48.632;10.156;2022-09-11T23:34:05;17.70;99.90
4739;DHT22;2383;48.632;10.156;2022-09-11T23:38:07;18.00;99.90
4739;DHT22;2383;48.632;10.156;2022-09-11T23:42:09;18.40;99.90
4739;DHT22;2383;48.632;10.156;2022-09-11T23:46:11;18.20;99.90
4739;DHT22;2383;48.632;10.156;2022-09-11T23:50:12;18.20;99.90
4739;DHT22;2383;48.632;10.156;2022-09-11T23:54:14;17.70;99.90
4739;DHT22;2383;48.632;10.156;2022-09-11T23:58:16;17.50;99.90
